TimeEST,TemperatureF,Dew PointF,Humidity,Sea Level PressureIn,VisibilityMPH,Wind Direction,Wind SpeedMPH,Gust SpeedMPH,PrecipitationIn,Events,Conditions,WindDirDegrees,DateUTC
12:52 AM,36.0,34.0,93,29.95,4.0,ENE,19.6,27.6,0.07,Rain,Rain,60,2013-02-27 05:52:00
1:52 AM,37.0,35.1,93,29.93,4.0,NE,19.6,25.3,0.21,Rain,Rain,50,2013-02-27 06:52:00
2:52 AM,37.9,36.0,93,29.87,4.0,ENE,18.4,26.5,0.15,Rain,Rain,60,2013-02-27 07:52:00
3:52 AM,39.0,37.0,93,29.81,5.0,ENE,19.6,33.4,0.07,Rain,Light Rain,60,2013-02-27 08:52:00
4:52 AM,39.9,37.9,93,29.79,3.0,ENE,23.0,28.8,0.09,Rain,Rain,60,2013-02-27 09:52:00
4:59 AM,39.2,39.2,100,29.78,2.5,ENE,24.2,31.1,0.03,Rain,Rain,60,2013-02-27 09:59:00
5:18 AM,41.0,39.2,93,29.77,4.0,NE,21.9,32.2,0.09,Rain,Light Rain,50,2013-02-27 10:18:00
5:52 AM,41.0,39.0,93,29.75,3.0,ENE,25.3,34.5,0.13,Rain,Rain,60,2013-02-27 10:52:00
6:00 AM,41.0,39.2,93,29.75,4.0,ENE,25.3,35.7,N/A,Rain,Light Rain,60,2013-02-27 11:00:00
6:36 AM,42.8,39.2,87,29.73,4.0,ENE,24.2,33.4,0.03,Rain,Light Rain,60,2013-02-27 11:36:00
6:52 AM,42.1,39.9,92,29.73,6.0,ENE,27.6,35.7,0.04,Rain,Light Rain,70,2013-02-27 11:52:00
7:13 AM,42.8,41.0,93,29.72,2.0,ENE,32.2,41.4,0.02,Rain,Light Rain,70,2013-02-27 12:13:00
7:21 AM,42.8,41.0,93,29.72,1.5,ENE,29.9,40.3,0.02,Rain,Light Rain,70,2013-02-27 12:21:00
7:41 AM,42.8,42.8,100,29.72,2.0,ENE,28.8,52.9,0.03,Rain,Light Rain,70,2013-02-27 12:41:00
7:48 AM,42.8,41.0,93,29.72,1.5,ENE,28.8,39.1,0.04,Rain,Rain,70,2013-02-27 12:48:00
7:52 AM,43.0,41.0,93,29.72,1.5,ENE,32.2,46.0,0.04,Rain,Light Rain,70,2013-02-27 12:52:00
8:15 AM,42.8,41.0,93,29.70,2.5,ENE,32.2,44.9,0.02,Rain,Light Rain,70,2013-02-27 13:15:00
8:27 AM,42.8,41.0,93,29.69,3.0,ENE,31.1,43.7,0.03,Rain,Light Rain,70,2013-02-27 13:27:00
8:34 AM,42.8,41.0,93,29.69,2.0,ENE,29.9,41.4,0.03,Rain,Rain,70,2013-02-27 13:34:00
8:52 AM,43.0,41.0,93,29.68,2.5,ENE,33.4,44.9,0.04,Rain,Light Rain,60,2013-02-27 13:52:00
9:02 AM,42.8,41.0,93,29.67,3.0,ENE,31.1,43.7,0.01,Rain,Light Rain,60,2013-02-27 14:02:00
9:06 AM,42.8,41.0,93,29.67,2.5,ENE,29.9,40.3,0.01,Rain,Light Rain,70,2013-02-27 14:06:00
9:18 AM,42.8,41.0,93,29.66,1.8,ENE,31.1,42.6,0.02,Rain,Light Rain,70,2013-02-27 14:18:00
9:52 AM,42.1,41.0,96,29.65,1.0,ENE,29.9,39.1,0.05,Rain,Light Rain,70,2013-02-27 14:52:00
10:52 AM,41.0,39.9,96,29.62,0.8,ENE,24.2,32.2,0.10,Rain,Heavy Rain,70,2013-02-27 15:52:00
11:03 AM,41.0,39.2,93,29.62,1.0,ENE,23.0,33.4,0.06,Rain,Heavy Rain,70,2013-02-27 16:03:00
11:21 AM,41.0,39.2,93,29.61,2.0,ENE,20.7,29.9,0.09,Rain,Light Rain,70,2013-02-27 16:21:00
11:35 AM,41.0,39.2,93,29.60,1.5,East,26.5,34.5,0.11,Rain,Light Rain,80,2013-02-27 16:35:00
11:49 AM,41.0,39.2,93,29.60,2.0,East,25.3,34.5,0.11,Rain,Light Rain,80,2013-02-27 16:49:00
11:52 AM,41.0,39.9,96,29.60,2.0,East,26.5,34.5,0.11,Rain,Light Rain,80,2013-02-27 16:52:00
12:01 PM,41.0,39.2,93,29.59,1.8,East,29.9,38.0,0.01,Rain,Light Rain,80,2013-02-27 17:01:00
12:12 PM,41.0,39.2,93,29.59,2.0,East,26.5,34.5,0.02,Rain,Light Rain,80,2013-02-27 17:12:00
12:52 PM,41.0,39.9,96,29.56,1.8,East,25.3,34.5,0.03,Rain,Light Rain,80,2013-02-27 17:52:00
1:00 PM,41.0,39.2,93,29.56,2.5,East,25.3,32.2,0.00,Rain,Light Rain,80,2013-02-27 18:00:00
1:08 PM,41.0,39.2,93,29.55,3.0,East,29.9,35.7,0.00,,Overcast,80,2013-02-27 18:08:00
1:52 PM,41.0,39.9,96,29.53,6.0,East,24.2,-,0.00,,Overcast,80,2013-02-27 18:52:00
2:52 PM,41.0,39.9,96,29.54,5.0,East,23.0,31.1,N/A,,Overcast,80,2013-02-27 19:52:00
3:08 PM,41.0,39.2,93,29.53,2.0,East,17.3,29.9,0.00,Rain,Light Rain,90,2013-02-27 20:08:00
3:18 PM,41.0,39.2,93,29.53,1.8,East,19.6,27.6,0.00,Rain,Light Rain,90,2013-02-27 20:18:00
3:27 PM,41.0,39.2,93,29.53,2.0,East,20.7,27.6,0.00,,Overcast,90,2013-02-27 20:27:00
3:52 PM,41.0,39.9,96,29.54,3.0,East,17.3,-,0.00,,Overcast,80,2013-02-27 20:52:00
4:35 PM,39.2,39.2,100,29.54,2.0,East,12.7,-,N/A,,Overcast,80,2013-02-27 21:35:00
4:43 PM,39.2,39.2,100,29.55,1.5,ENE,12.7,-,N/A,,Overcast,70,2013-02-27 21:43:00
4:52 PM,39.9,39.9,100,29.55,1.0,ENE,10.4,-,N/A,,Overcast,70,2013-02-27 21:52:00
5:10 PM,39.2,39.2,100,29.55,0.8,ENE,11.5,-,N/A,,Overcast,70,2013-02-27 22:10:00
5:20 PM,39.2,39.2,100,29.55,0.5,ENE,10.4,-,0.00,Fog-Rain,Light Rain,70,2013-02-27 22:20:00
5:34 PM,39.2,39.2,100,29.55,1.0,East,9.2,-,0.00,Rain,Light Rain,80,2013-02-27 22:34:00
5:52 PM,39.9,39.9,100,29.56,1.5,East,6.9,-,0.00,,Overcast,80,2013-02-27 22:52:00
6:02 PM,39.2,39.2,100,29.57,2.5,East,6.9,-,N/A,,Overcast,80,2013-02-27 23:02:00
6:15 PM,39.2,39.2,100,29.57,1.5,Calm,Calm,-,N/A,,Overcast,0,2013-02-27 23:15:00
6:26 PM,39.2,39.2,100,29.58,2.0,North,5.8,-,N/A,,Overcast,10,2013-02-27 23:26:00
6:35 PM,39.2,39.2,100,29.59,1.2,NW,4.6,-,N/A,,Overcast,320,2013-02-27 23:35:00
6:52 PM,39.9,39.9,100,29.59,1.0,West,4.6,-,N/A,,Overcast,280,2013-02-27 23:52:00
7:16 PM,41.0,41.0,100,29.60,1.0,West,3.5,-,N/A,,Overcast,260,2013-02-28 00:16:00
7:32 PM,42.8,41.0,93,29.60,2.5,WSW,3.5,-,N/A,,Overcast,250,2013-02-28 00:32:00
7:44 PM,42.8,41.0,93,29.60,3.0,West,5.8,-,N/A,,Overcast,270,2013-02-28 00:44:00
7:52 PM,42.1,41.0,96,29.60,4.0,West,4.6,-,N/A,,Overcast,260,2013-02-28 00:52:00
8:05 PM,41.0,41.0,100,29.60,4.0,West,4.6,-,N/A,,Overcast,260,2013-02-28 01:05:00
8:38 PM,41.0,39.2,93,29.61,6.0,SW,5.8,-,N/A,,Mostly Cloudy,230,2013-02-28 01:38:00
8:52 PM,39.9,39.0,97,29.62,4.0,WSW,4.6,-,N/A,,Overcast,240,2013-02-28 01:52:00
9:07 PM,39.2,37.4,93,29.62,5.0,WSW,5.8,-,N/A,,Overcast,240,2013-02-28 02:07:00
9:37 PM,39.2,37.4,93,29.64,5.0,WSW,5.8,-,N/A,,Scattered Clouds,250,2013-02-28 02:37:00
9:52 PM,39.9,39.0,97,29.64,10.0,West,6.9,-,N/A,,Clear,260,2013-02-28 02:52:00
10:52 PM,39.0,37.0,93,29.64,10.0,West,4.6,-,N/A,,Clear,270,2013-02-28 03:52:00
11:52 PM,37.9,35.1,89,29.62,10.0,NW,3.5,-,N/A,,Partly Cloudy,310,2013-02-28 04:52:00